Time;durP1;ratioP1;P1;durP2;ratioP2;P2;SDS_P1;SDS_P2;PMS_P1;PMS_P2;Temp;Humidity;BMP_temperature;BMP_pressure;BME280_temperature;BME280_humidity;BME280_pressure;Samples;Min_cycle;Max_cycle;Signal;HPM_P1;HPM_P2
2023/09/05 00:01:32;;;;;;;;;;;;;;;;;;5010815;28;20023;-68
2023/09/05 00:03:58;;;;;;;;;;;;;;;;;;5010894;28;19913;-68
2023/09/05 00:06:24;;;;;;;;;;;;;;;;;;5011013;28;19970;-69
2023/09/05 00:08:50;;;;;;;;;;;;;;;;;;5010991;28;19912;-69
2023/09/05 00:11:16;;;;;;;;;;;;;;;;;;5011129;28;19944;-69
2023/09/05 00:13:42;;;;;;;;;;;;;;;;;;5010784;28;19953;-69
2023/09/05 00:16:08;;;;;;;;;;;;;;;;;;5010106;28;19953;-69
2023/09/05 00:18:34;;;;;;;;;;;;;;;;;;5010641;28;19949;-69
2023/09/05 00:21:00;;;;;;;;;;;;;;;;;;5010493;28;20008;-69
2023/09/05 00:23:26;;;;;;;;;;;;;;;;;;5010031;28;19953;-69
2023/09/05 00:25:52;;;;;;;;;;;;;;;;;;5010989;28;19911;-69
2023/09/05 00:28:19;;;;;;;;;;;;;;;;;;5010334;28;19992;-69
2023/09/05 00:30:45;;;;;;;;;;;;;;;;;;5010262;28;19958;-68
2023/09/05 00:33:11;;;;;;;;;;;;;;;;;;5010632;28;19912;-68
2023/09/05 00:35:36;;;;;;;;;;;;;;;;;;5010258;28;19953;-68
2023/09/05 00:38:03;;;;;;;;;;;;;;;;;;5010173;28;20397;-68
2023/09/05 00:40:30;;;;;;;;;;;;;;;;;;5009906;28;19905;-69
2023/09/05 00:42:56;;;;;;;;;;;;;;;;;;5010251;28;19909;-69
2023/09/05 00:45:22;;;;;;;;;;;;;;;;;;4992695;28;20341;-69
2023/09/05 00:47:48;;;;;;;;;;;;;;;;;;5009796;28;20004;-69
2023/09/05 00:50:18;;;;;;;;;;;;;;;;;;5010059;28;19960;-69
2023/09/05 00:52:44;;;;;;;;;;;;;;;;;;5010316;28;19913;-69
2023/09/05 00:55:10;;;;;;;;;;;;;;;;;;5009907;28;20364;-70
2023/09/05 00:57:35;;;;;;;;;;;;;;;;;;5010154;28;19952;-69
2023/09/05 01:00:03;;;;;;;;;;;;;;;;;;5009984;28;19941;-69
2023/09/05 01:02:29;;;;;;;;;;;;;;;;;;5009583;28;19931;-69
2023/09/05 01:04:55;;;;;;;;;;;;;;;;;;5009847;28;20390;-68
2023/09/05 01:07:21;;;;;;;;;;;;;;;;;;5009852;28;19905;-69
2023/09/05 01:09:47;;;;;;;;;;;;;;;;;;5009783;28;19995;-69
2023/09/05 01:12:13;;;;;;;;;;;;;;;;;;5009596;28;19931;-68
2023/09/05 01:14:39;;;;;;;;;;;;;;;;;;5009531;28;19948;-69
2023/09/05 01:17:05;;;;;;;;;;;;;;;;;;5009406;28;19917;-69
2023/09/05 01:19:34;;;;;;;;;;;;;;;;;;5009909;28;19952;-69
2023/09/05 01:22:00;;;;;;;;;;;;;;;;;;5009901;28;19916;-69
2023/09/05 01:24:26;;;;;;;;;;;;;;;;;;5009749;28;20388;-69
2023/09/05 01:26:52;;;;;;;;;;;;;;;;;;5009969;28;20378;-69
2023/09/05 01:29:25;;;;;;;;;;;;;;;;;;5009756;28;19905;-69
2023/09/05 01:31:51;;;;;;;;;;;;;;;;;;5010841;28;20002;-70
2023/09/05 01:34:17;;;;;;;;;;;;;;;;;;5010221;28;19905;-68
2023/09/05 01:36:43;;;;;;;;;;;;;;;;;;5009846;28;20031;-68
2023/09/05 01:39:11;;;;;;;;;;;;;;;;;;5009783;28;20323;-67
2023/09/05 01:41:37;;;;;;;;;;;;;;;;;;5009955;28;19937;-68
2023/09/05 01:44:06;;;;;;;;;;;;;;;;;;5010281;28;19905;-69
2023/09/05 01:46:32;;;;;;;;;;;;;;;;;;5010540;28;19913;-68
2023/09/05 01:48:59;;;;;;;;;;;;;;;;;;5011882;28;19905;-69
2023/09/05 01:51:24;;;;;;;;;;;;;;;;;;5014186;28;19915;-68
2023/09/05 01:53:50;;;;;;;;;;;;;;;;;;5014342;28;19998;-69
2023/09/05 01:56:16;;;;;;;;;;;;;;;;;;5015502;28;19920;-68
2023/09/05 01:58:42;;;;;;;;;;;;;;;;;;5014846;28;19918;-69
2023/09/05 02:01:09;;;;;;;;;;;;;;;;;;5014691;28;19941;-68
2023/09/05 02:03:34;;;;;;;;;;;;;;;;;;5014199;28;19909;-69
2023/09/05 02:06:00;;;;;;;;;;;;;;;;;;5014438;28;19946;-68
2023/09/05 02:08:26;;;;;;;;;;;;;;;;;;5014223;28;19905;-69
2023/09/05 02:10:52;;;;;;;;;;;;;;;;;;5014465;28;19949;-68
2023/09/05 02:13:18;;;;;;;;;;;;;;;;;;5014118;28;19905;-68
2023/09/05 02:15:44;;;;;;;;;;;;;;;;;;5014085;28;20027;-69
2023/09/05 02:18:11;;;;;;;;;;;;;;;;;;5016429;28;20365;-69
2023/09/05 02:20:37;;;;;;;;;;;;;;;;;;5019726;28;19933;-67
2023/09/05 02:23:02;;;;;;;;;;;;;;;;;;5019212;28;19955;-69
2023/09/05 02:25:28;;;;;;;;;;;;;;;;;;5018292;28;19909;-69
2023/09/05 02:27:54;;;;;;;;;;;;;;;;;;5017050;28;19912;-68
2023/09/05 02:30:21;;;;;;;;;;;;;;;;;;5012940;28;19905;-68
2023/09/05 02:32:49;;;;;;;;;;;;;;;;;;5013291;28;19912;-67
2023/09/05 02:35:16;;;;;;;;;;;;;;;;;;5013521;28;20330;-68
2023/09/05 02:37:42;;;;;;;;;;;;;;;;;;5012740;28;19949;-68
2023/09/05 02:40:08;;;;;;;;;;;;;;;;;;5012466;28;20252;-69
2023/09/05 02:42:34;;;;;;;;;;;;;;;;;;5012454;28;19960;-69
2023/09/05 02:44:59;;;;;;;;;;;;;;;;;;5012095;28;19941;-69
2023/09/05 02:47:25;;;;;;;;;;;;;;;;;;5012007;28;19957;-69
2023/09/05 02:49:51;;;;;;;;;;;;;;;;;;5012294;28;19949;-69
2023/09/05 02:52:17;;;;;;;;;;;;;;;;;;5011951;28;19905;-69
2023/09/05 02:54:43;;;;;;;;;;;;;;;;;;5012327;28;20022;-69
2023/09/05 02:57:09;;;;;;;;;;;;;;;;;;5011742;28;19949;-69
2023/09/05 02:59:35;;;;;;;;;;;;;;;;;;5011350;28;19917;-69
2023/09/05 03:02:01;;;;;;;;;;;;;;;;;;5012245;28;19914;-68
2023/09/05 03:04:32;;;;;;;;;;;;;;;;;;5011644;28;19948;-68
2023/09/05 03:06:58;;;;;;;;;;;;;;;;;;5011965;28;19905;-68
2023/09/05 03:09:24;;;;;;;;;;;;;;;;;;4993912;28;19909;-69
2023/09/05 03:11:50;;;;;;;;;;;;;;;;;;5011734;28;20357;-70
2023/09/05 03:14:16;;;;;;;;;;;;;;;;;;5011519;28;20379;-70
2023/09/05 03:16:42;;;;;;;;;;;;;;;;;;5011928;28;20006;-70
2023/09/05 03:19:11;;;;;;;;;;;;;;;;;;5011088;28;20605;-70
2023/09/05 03:21:37;;;;;;;;;;;;;;;;;;5011547;28;19909;-68
2023/09/05 03:24:03;;;;;;;;;;;;;;;;;;5011602;28;20374;-70
2023/09/05 03:26:29;;;;;;;;;;;;;;;;;;5010469;28;19948;-70
2023/09/05 03:28:56;;;;;;;;;;;;;;;;;;5011192;28;19948;-68
2023/09/05 03:31:23;;;;;;;;;;;;;;;;;;5011385;28;19906;-69
2023/09/05 03:33:50;;;;;;;;;;;;;;;;;;5011583;28;19911;-68
2023/09/05 03:36:16;;;;;;;;;;;;;;;;;;5010915;28;19964;-69
2023/09/05 03:38:42;;;;;;;;;;;;;;;;;;5011310;28;19944;-69
2023/09/05 03:41:07;;;;;;;;;;;;;;;;;;5011148;28;19949;-69
2023/09/05 03:43:33;;;;;;;;;;;;;;;;;;5008793;28;20000;-70
2023/09/05 03:45:59;;;;;;;;;;;;;;;;;;5009229;28;20397;-69
2023/09/05 03:48:25;;;;;;;;;;;;;;;;;;5008949;28;20468;-69
2023/09/05 03:50:51;;;;;;;;;;;;;;;;;;5009090;28;19959;-69
2023/09/05 03:53:17;;;;;;;;;;;;;;;;;;5009034;28;20008;-69
2023/09/05 03:55:45;;;;;;;;;;;;;;;;;;5009127;28;20000;-69
2023/09/05 03:58:11;;;;;;;;;;;;;;;;;;5010179;28;20400;-68
2023/09/05 04:00:37;;;;;;;;;;;;;;;;;;5011061;28;19909;-68
2023/09/05 04:03:03;;;;;;;;;;;;;;;;;;5010668;28;19905;-67
2023/09/05 04:05:29;;;;;;;;;;;;;;;;;;5010337;28;19912;-68
2023/09/05 04:07:55;;;;;;;;;;;;;;;;;;5010671;28;19909;-68
2023/09/05 04:10:22;;;;;;;;;;;;;;;;;;5010707;28;19909;-68
2023/09/05 04:12:48;;;;;;;;;;;;;;;;;;5010175;28;19928;-69
2023/09/05 04:15:19;;;;;;;;;;;;;;;;;;5010580;28;20820;-69
2023/09/05 04:17:45;;;;;;;;;;;;;;;;;;5010686;28;19917;-69
2023/09/05 04:20:13;;;;;;;;;;;;;;;;;;5010623;28;19948;-69
2023/09/05 04:22:39;;;;;;;;;;;;;;;;;;5010775;28;20256;-69
2023/09/05 04:25:05;;;;;;;;;;;;;;;;;;5010475;28;19956;-68
2023/09/05 04:27:31;;;;;;;;;;;;;;;;;;5009998;28;19992;-68
2023/09/05 04:29:56;;;;;;;;;;;;;;;;;;5009699;28;19992;-68
2023/09/05 04:32:30;;;;;;;;;;;;;;;;;;5009557;28;20034;-68
2023/09/05 04:34:56;;;;;;;;;;;;;;;;;;5010589;28;19953;-68
2023/09/05 04:37:22;;;;;;;;;;;;;;;;;;4993774;28;20265;-68
2023/09/05 04:39:49;;;;;;;;;;;;;;;;;;4990337;28;20312;-68
2023/09/05 04:42:15;;;;;;;;;;;;;;;;;;4990589;28;19933;-68
2023/09/05 04:44:40;;;;;;;;;;;;;;;;;;4990433;28;20355;-69
2023/09/05 04:47:06;;;;;;;;;;;;;;;;;;4990262;28;19953;-68
2023/09/05 04:49:32;;;;;;;;;;;;;;;;;;4990322;28;19953;-68
2023/09/05 04:51:58;;;;;;;;;;;;;;;;;;4990812;28;19964;-68
2023/09/05 04:54:25;;;;;;;;;;;;;;;;;;4990267;28;19972;-68
2023/09/05 04:56:51;;;;;;;;;;;;;;;;;;4990266;28;19921;-68
2023/09/05 04:59:17;;;;;;;;;;;;;;;;;;4989956;28;19918;-68
2023/09/05 05:01:43;;;;;;;;;;;;;;;;;;4990444;28;19905;-68
2023/09/05 05:04:09;;;;;;;;;;;;;;;;;;4990560;28;19929;-67
2023/09/05 05:06:36;;;;;;;;;;;;;;;;;;4990742;28;20504;-68
2023/09/05 05:09:02;;;;;;;;;;;;;;;;;;4989791;28;19906;-68
2023/09/05 05:11:27;;;;;;;;;;;;;;;;;;4991649;28;19929;-67
2023/09/05 05:13:53;;;;;;;;;;;;;;;;;;5010077;28;19905;-68
2023/09/05 05:16:20;;;;;;;;;;;;;;;;;;5009815;28;19913;-67
2023/09/05 05:18:46;;;;;;;;;;;;;;;;;;5009707;28;19912;-67
2023/09/05 05:21:11;;;;;;;;;;;;;;;;;;5009217;28;19933;-67
2023/09/05 05:23:37;;;;;;;;;;;;;;;;;;5012412;28;19912;-68
2023/09/05 05:26:03;;;;;;;;;;;;;;;;;;5013891;28;20582;-68
2023/09/05 05:28:29;;;;;;;;;;;;;;;;;;4996052;28;20022;-68
2023/09/05 05:30:55;;;;;;;;;;;;;;;;;;5010518;28;19917;-68
2023/09/05 05:33:21;;;;;;;;;;;;;;;;;;5005135;28;19937;-69
2023/09/05 05:35:47;;;;;;;;;;;;;;;;;;5012637;28;19979;-68
2023/09/05 05:38:13;;;;;;;;;;;;;;;;;;5013585;28;20323;-68
2023/09/05 05:40:39;;;;;;;;;;;;;;;;;;5013141;28;20007;-69
2023/09/05 05:43:05;;;;;;;;;;;;;;;;;;5013411;28;20375;-69
2023/09/05 05:45:31;;;;;;;;;;;;;;;;;;5013369;28;19958;-70
2023/09/05 05:47:57;;;;;;;;;;;;;;;;;;5013291;28;19964;-68
2023/09/05 05:50:25;;;;;;;;;;;;;;;;;;5013310;28;19961;-69
2023/09/05 05:52:52;;;;;;;;;;;;;;;;;;5012644;28;19995;-69
2023/09/05 05:55:18;;;;;;;;;;;;;;;;;;5013349;28;19912;-69
2023/09/05 05:57:43;;;;;;;;;;;;;;;;;;5011444;28;19960;-69
2023/09/05 06:00:10;;;;;;;;;;;;;;;;;;5010938;28;19933;-69
2023/09/05 06:02:36;;;;;;;;;;;;;;;;;;5011224;28;19905;-70
2023/09/05 06:05:01;;;;;;;;;;;;;;;;;;5011508;28;19912;-69
2023/09/05 06:07:27;;;;;;;;;;;;;;;;;;5011263;28;19955;-69
2023/09/05 06:09:53;;;;;;;;;;;;;;;;;;5011355;28;19905;-70
2023/09/05 06:12:20;;;;;;;;;;;;;;;;;;5011497;28;19955;-69
2023/09/05 06:14:46;;;;;;;;;;;;;;;;;;5011626;28;19973;-69
2023/09/05 06:17:12;;;;;;;;;;;;;;;;;;5011901;28;20287;-70
2023/09/05 06:19:38;;;;;;;;;;;;;;;;;;4994049;28;19975;-69
2023/09/05 06:22:04;;;;;;;;;;;;;;;;;;5012290;28;19909;-69
2023/09/05 06:24:31;;;;;;;;;;;;;;;;;;5012549;28;19928;-69
2023/09/05 06:26:58;;;;;;;;;;;;;;;;;;5012164;28;19984;-69
2023/09/05 06:29:24;;;;;;;;;;;;;;;;;;5012301;28;19984;-69
2023/09/05 06:31:51;;;;;;;;;;;;;;;;;;5012650;28;20449;-70
2023/09/05 06:34:16;;;;;;;;;;;;;;;;;;5011939;28;20371;-70
2023/09/05 06:36:43;;;;;;;;;;;;;;;;;;5012415;28;20007;-69
2023/09/05 06:39:10;;;;;;;;;;;;;;;;;;5012055;28;19905;-68
2023/09/05 06:41:36;;;;;;;;;;;;;;;;;;5012322;28;19906;-69
2023/09/05 06:44:02;;;;;;;;;;;;;;;;;;5011689;28;19976;-69
2023/09/05 06:46:28;;;;;;;;;;;;;;;;;;5012136;28;20395;-69
2023/09/05 06:48:54;;;;;;;;;;;;;;;;;;5012230;28;19949;-69
2023/09/05 06:51:20;;;;;;;;;;;;;;;;;;5012026;28;19912;-70
2023/09/05 06:53:46;;;;;;;;;;;;;;;;;;5011583;28;19949;-70
2023/09/05 06:56:12;;;;;;;;;;;;;;;;;;5012017;28;20004;-70
2023/09/05 06:58:38;;;;;;;;;;;;;;;;;;5011576;28;20346;-69
2023/09/05 07:01:04;;;;;;;;;;;;;;;;;;5011809;28;19920;-69
2023/09/05 07:03:31;;;;;;;;;;;;;;;;;;5011576;28;19909;-69
2023/09/05 07:05:57;;;;;;;;;;;;;;;;;;4994378;28;19913;-69
2023/09/05 07:08:23;;;;;;;;;;;;;;;;;;5012331;28;20258;-70
2023/09/05 07:10:49;;;;;;;;;;;;;;;;;;5011871;28;20386;-70
2023/09/05 07:13:16;;;;;;;;;;;;;;;;;;5011601;28;19978;-68
2023/09/05 07:15:43;;;;;;;;;;;;;;;;;;5011356;28;19959;-68
2023/09/05 07:18:09;;;;;;;;;;;;;;;;;;5010188;28;20378;-69
2023/09/05 07:20:35;;;;;;;;;;;;;;;;;;5010093;28;19916;-68
2023/09/05 07:23:01;;;;;;;;;;;;;;;;;;5009793;28;19920;-68
2023/09/05 07:25:27;;;;;;;;;;;;;;;;;;5010054;28;20497;-68
2023/09/05 07:27:53;;;;;;;;;;;;;;;;;;5009694;28;20183;-67
2023/09/05 07:30:19;;;;;;;;;;;;;;;;;;4992889;28;19905;-69
2023/09/05 07:32:45;;;;;;;;;;;;;;;;;;5010275;28;20027;-68
2023/09/05 07:35:11;;;;;;;;;;;;;;;;;;5011328;28;20006;-69
2023/09/05 07:37:38;;;;;;;;;;;;;;;;;;5010763;28;20391;-69
2023/09/05 07:40:05;;;;;;;;;;;;;;;;;;5010602;28;19956;-69
2023/09/05 07:42:31;;;;;;;;;;;;;;;;;;5010009;28;19910;-68
2023/09/05 07:44:57;;;;;;;;;;;;;;;;;;4990605;28;19906;-68
2023/09/05 07:47:24;;;;;;;;;;;;;;;;;;4990171;28;19953;-68
2023/09/05 07:49:51;;;;;;;;;;;;;;;;;;4991171;28;19902;-67
2023/09/05 07:52:17;;;;;;;;;;;;;;;;;;4991495;28;19952;-69
2023/09/05 07:54:43;;;;;;;;;;;;;;;;;;4991268;28;20367;-68
2023/09/05 07:57:08;;;;;;;;;;;;;;;;;;4990773;28;19980;-69
2023/09/05 07:59:35;;;;;;;;;;;;;;;;;;4990658;28;20439;-69
2023/09/05 08:02:01;;;;;;;;;;;;;;;;;;5001992;28;19909;-68
2023/09/05 08:04:29;;;;;;;;;;;;;;;;;;5003852;28;19916;-67
2023/09/05 08:06:56;;;;;;;;;;;;;;;;;;5008899;28;19924;-68
2023/09/05 08:09:22;;;;;;;;;;;;;;;;;;5001919;28;19967;-68
2023/09/05 08:11:47;;;;;;;;;;;;;;;;;;5009889;28;19905;-68
2023/09/05 08:14:13;;;;;;;;;;;;;;;;;;5010656;28;19984;-68
2023/09/05 08:16:39;;;;;;;;;;;;;;;;;;5010636;28;20018;-69
2023/09/05 08:19:05;;;;;;;;;;;;;;;;;;5010272;28;20724;-67
2023/09/05 08:21:33;;;;;;;;;;;;;;;;;;5007387;28;19999;-68
2023/09/05 08:23:59;;;;;;;;;;;;;;;;;;5010575;28;19905;-68
2023/09/05 08:26:25;;;;;;;;;;;;;;;;;;5010188;28;19910;-69
2023/09/05 08:28:51;;;;;;;;;;;;;;;;;;5010231;28;19987;-69
2023/09/05 08:31:17;;;;;;;;;;;;;;;;;;5010513;28;19906;-69
2023/09/05 08:33:43;;;;;;;;;;;;;;;;;;5010120;28;19906;-69
2023/09/05 08:36:09;;;;;;;;;;;;;;;;;;5009698;28;19956;-68
2023/09/05 08:38:37;;;;;;;;;;;;;;;;;;5009722;28;19957;-69
2023/09/05 08:41:03;;;;;;;;;;;;;;;;;;5010509;28;19911;-70
2023/09/05 08:43:29;;;;;;;;;;;;;;;;;;5009713;28;19909;-69
2023/09/05 08:45:55;;;;;;;;;;;;;;;;;;5010274;28;19977;-69
2023/09/05 08:48:21;;;;;;;;;;;;;;;;;;5009720;28;19974;-68
2023/09/05 08:50:47;;;;;;;;;;;;;;;;;;5009730;28;20442;-67
2023/09/05 08:53:14;;;;;;;;;;;;;;;;;;5009666;28;20037;-68
2023/09/05 08:55:40;;;;;;;;;;;;;;;;;;5009903;28;19906;-68
2023/09/05 08:58:06;;;;;;;;;;;;;;;;;;5008653;28;19964;-68
2023/09/05 09:00:32;;;;;;;;;;;;;;;;;;5008352;28;20266;-67
2023/09/05 09:02:59;;;;;;;;;;;;;;;;;;5009035;28;19905;-69
2023/09/05 09:05:25;;;;;;;;;;;;;;;;;;5009494;28;19913;-68
2023/09/05 09:07:51;;;;;;;;;;;;;;;;;;5008036;28;20433;-68
2023/09/05 09:10:17;;;;;;;;;;;;;;;;;;5008689;28;19959;-69
2023/09/05 09:12:43;;;;;;;;;;;;;;;;;;5009599;28;19905;-68
2023/09/05 09:15:09;;;;;;;;;;;;;;;;;;5009263;28;19968;-68
2023/09/05 09:17:35;;;;;;;;;;;;;;;;;;5009834;28;20378;-68
2023/09/05 09:20:01;;;;;;;;;;;;;;;;;;5009715;28;19940;-68
2023/09/05 09:22:27;;;;;;;;;;;;;;;;;;5009039;28;20004;-68
2023/09/05 09:24:53;;;;;;;;;;;;;;;;;;4995909;28;20359;-68
2023/09/05 09:27:22;;;;;;;;;;;;;;;;;;5000191;28;19905;-68
2023/09/05 09:29:48;;;;;;;;;;;;;;;;;;4992391;28;19968;-68
2023/09/05 09:32:14;;;;;;;;;;;;;;;;;;4990107;28;20355;-68
2023/09/05 09:34:40;;;;;;;;;;;;;;;;;;4989736;28;19905;-69
2023/09/05 09:37:06;;;;;;;;;;;;;;;;;;4999706;28;19922;-68
2023/09/05 09:39:32;;;;;;;;;;;;;;;;;;5009526;28;20124;-68
2023/09/05 09:41:59;;;;;;;;;;;;;;;;;;5008513;28;20102;-68
2023/09/05 09:44:25;;;;;;;;;;;;;;;;;;5006693;28;19914;-68
2023/09/05 09:46:51;;;;;;;;;;;;;;;;;;4998562;28;19912;-68
2023/09/05 09:49:17;;;;;;;;;;;;;;;;;;4993646;28;19944;-67
2023/09/05 09:51:43;;;;;;;;;;;;;;;;;;5000608;28;19964;-68
2023/09/05 09:54:09;;;;;;;;;;;;;;;;;;5006887;28;19956;-68
2023/09/05 09:56:35;;;;;;;;;;;;;;;;;;5009386;28;20387;-68
2023/09/05 09:59:01;;;;;;;;;;;;;;;;;;5008718;28;19960;-67
2023/09/05 10:01:28;;;;;;;;;;;;;;;;;;4998150;28;19917;-68
2023/09/05 10:03:54;;;;;;;;;;;;;;;;;;5009444;28;20347;-67
2023/09/05 10:06:20;;;;;;;;;;;;;;;;;;5009007;28;20000;-68
2023/09/05 10:08:46;;;;;;;;;;;;;;;;;;5009281;28;20426;-68
2023/09/05 10:11:12;;;;;;;;;;;;;;;;;;5011970;28;20432;-68
2023/09/05 10:13:38;;;;;;;;;;;;;;;;;;5013179;28;19971;-68
2023/09/05 10:16:06;;;;;;;;;;;;;;;;;;5011913;28;20393;-68
2023/09/05 10:18:32;;;;;;;;;;;;;;;;;;5012667;28;19906;-68
2023/09/05 10:20:58;;;;;;;;;;;;;;;;;;5012810;28;19905;-68
2023/09/05 10:23:24;;;;;;;;;;;;;;;;;;4994932;28;20030;-67
2023/09/05 10:25:49;;;;;;;;;;;;;;;;;;5012356;28;19906;-67
2023/09/05 10:28:15;;;;;;;;;;;;;;;;;;5012092;28;19905;-68
2023/09/05 10:30:43;;;;;;;;;;;;;;;;;;5011314;28;19941;-66
2023/09/05 10:33:09;;;;;;;;;;;;;;;;;;5011222;28;19999;-66
2023/09/05 10:35:35;;;;;;;;;;;;;;;;;;5011897;28;19906;-67
2023/09/05 10:38:01;;;;;;;;;;;;;;;;;;5012461;28;19956;-67
2023/09/05 10:40:27;;;;;;;;;;;;;;;;;;5012231;28;19962;-67
2023/09/05 10:42:53;;;;;;;;;;;;;;;;;;5011642;28;19945;-67
2023/09/05 10:45:19;;;;;;;;;;;;;;;;;;5011172;28;19945;-68
2023/09/05 10:47:47;;;;;;;;;;;;;;;;;;5010975;28;19945;-67
2023/09/05 10:50:19;;;;;;;;;;;;;;;;;;5011348;28;20362;-67
2023/09/05 10:52:49;;;;;;;;;;;;;;;;;;5010666;28;19996;-69
2023/09/05 10:55:15;;;;;;;;;;;;;;;;;;5010539;28;19905;-67
2023/09/05 10:57:42;;;;;;;;;;;;;;;;;;5010846;28;19960;-68
2023/09/05 11:00:50;;;;;;;;;;;;;;;;;;5012646;28;19932;-68
2023/09/05 11:02:57;;;;;;;;;;;;;;;;;;5007538;28;19912;-67
2023/09/05 11:05:26;;;;;;;;;;;;;;;;;;5012502;28;19921;-67
2023/09/05 11:07:54;;;;;;;;;;;;;;;;;;5014006;28;19951;-68
2023/09/05 11:10:20;;;;;;;;;;;;;;;;;;5014788;28;20020;-68
2023/09/05 11:12:47;;;;;;;;;;;;;;;;;;5012905;28;20398;-66
2023/09/05 11:15:14;;;;;;;;;;;;;;;;;;5014446;28;20007;-68
2023/09/05 11:17:40;;;;;;;;;;;;;;;;;;5014008;28;19943;-68
2023/09/05 11:20:07;;;;;;;;;;;;;;;;;;5012330;28;20344;-68
2023/09/05 11:22:34;;;;;;;;;;;;;;;;;;5015367;28;20254;-67
2023/09/05 11:25:00;;;;;;;;;;;;;;;;;;5015063;28;19905;-67
2023/09/05 11:27:28;;;;;;;;;;;;;;;;;;5014202;28;20251;-68
2023/09/05 11:29:55;;;;;;;;;;;;;;;;;;5016066;28;19905;-67
2023/09/05 11:32:21;;;;;;;;;;;;;;;;;;5018405;28;19901;-67
2023/09/05 11:34:48;;;;;;;;;;;;;;;;;;5018607;28;20330;-69
2023/09/05 11:37:14;;;;;;;;;;;;;;;;;;5017955;28;20018;-67
2023/09/05 11:39:40;;;;;;;;;;;;;;;;;;5009957;28;19909;-68
2023/09/05 11:42:06;;;;;;;;;;;;;;;;;;4998661;28;19999;-66
2023/09/05 11:44:33;;;;;;;;;;;;;;;;;;5008450;28;19949;-68
2023/09/05 11:47:00;;;;;;;;;;;;;;;;;;5011054;28;20390;-68
2023/09/05 11:49:26;;;;;;;;;;;;;;;;;;5011059;28;19916;-68
2023/09/05 11:51:52;;;;;;;;;;;;;;;;;;5010279;28;19913;-68
2023/09/05 11:54:18;;;;;;;;;;;;;;;;;;5011321;28;19905;-68
2023/09/05 11:56:44;;;;;;;;;;;;;;;;;;5010276;28;20570;-68
2023/09/05 11:59:10;;;;;;;;;;;;;;;;;;5010310;28;19963;-69
2023/09/05 12:01:36;;;;;;;;;;;;;;;;;;5011020;28;19937;-68
2023/09/05 12:04:05;;;;;;;;;;;;;;;;;;4992765;28;20503;-68
2023/09/05 12:06:31;;;;;;;;;;;;;;;;;;5010077;28;19905;-69
2023/09/05 12:08:57;;;;;;;;;;;;;;;;;;5002338;28;19917;-70
2023/09/05 12:11:23;;;;;;;;;;;;;;;;;;5003733;28;19928;-68
2023/09/05 12:13:49;;;;;;;;;;;;;;;;;;5009214;28;20590;-68
2023/09/05 12:16:17;;;;;;;;;;;;;;;;;;4998792;28;19972;-68
2023/09/05 12:18:43;;;;;;;;;;;;;;;;;;5005270;28;19909;-68
2023/09/05 12:21:09;;;;;;;;;;;;;;;;;;5008178;28;19948;-67
2023/09/05 12:23:35;;;;;;;;;;;;;;;;;;5006578;28;19948;-67
2023/09/05 12:26:02;;;;;;;;;;;;;;;;;;5008400;28;19949;-69
2023/09/05 12:28:28;;;;;;;;;;;;;;;;;;5007062;28;19917;-68
2023/09/05 12:30:54;;;;;;;;;;;;;;;;;;5009785;28;20388;-68
2023/09/05 12:33:20;;;;;;;;;;;;;;;;;;5009274;28;19944;-69
2023/09/05 12:35:46;;;;;;;;;;;;;;;;;;5010336;28;20014;-68
2023/09/05 12:38:12;;;;;;;;;;;;;;;;;;5009905;28;19949;-68
2023/09/05 12:40:38;;;;;;;;;;;;;;;;;;5009232;28;19949;-67
2023/09/05 12:43:04;;;;;;;;;;;;;;;;;;5008291;28;19948;-68
2023/09/05 12:45:31;;;;;;;;;;;;;;;;;;5008131;28;19990;-68
2023/09/05 12:47:57;;;;;;;;;;;;;;;;;;5008390;28;19973;-69
2023/09/05 12:50:28;;;;;;;;;;;;;;;;;;5009126;28;20006;-68
2023/09/05 12:52:54;;;;;;;;;;;;;;;;;;5008629;28;19917;-68
2023/09/05 12:55:20;;;;;;;;;;;;;;;;;;5008978;28;20001;-68
2023/09/05 12:57:46;;;;;;;;;;;;;;;;;;5009509;28;20023;-68
2023/09/05 13:00:12;;;;;;;;;;;;;;;;;;5009190;28;19992;-68
2023/09/05 13:02:43;;;;;;;;;;;;;;;;;;5009707;28;20425;-68
2023/09/05 13:05:09;;;;;;;;;;;;;;;;;;5009222;28;20358;-69
2023/09/05 13:07:35;;;;;;;;;;;;;;;;;;5010094;28;19940;-69
2023/09/05 13:10:01;;;;;;;;;;;;;;;;;;5009686;28;19947;-68
2023/09/05 13:12:27;;;;;;;;;;;;;;;;;;5009310;28;19905;-69
2023/09/05 13:14:53;;;;;;;;;;;;;;;;;;5009938;28;20358;-68
2023/09/05 13:17:19;;;;;;;;;;;;;;;;;;5008923;28;20361;-69
2023/09/05 13:19:45;;;;;;;;;;;;;;;;;;4991682;28;19952;-68
2023/09/05 13:22:12;;;;;;;;;;;;;;;;;;5009411;28;19996;-68
2023/09/05 13:24:38;;;;;;;;;;;;;;;;;;5009273;28;20362;-69
2023/09/05 13:27:04;;;;;;;;;;;;;;;;;;5009675;28;19949;-67
2023/09/05 13:29:30;;;;;;;;;;;;;;;;;;5009561;28;19951;-67
2023/09/05 13:31:56;;;;;;;;;;;;;;;;;;5009364;28;19937;-69
2023/09/05 13:34:22;;;;;;;;;;;;;;;;;;5009518;28;19917;-69
2023/09/05 13:36:48;;;;;;;;;;;;;;;;;;5009509;28;19913;-69
2023/09/05 13:39:14;;;;;;;;;;;;;;;;;;5008646;28;19916;-69
2023/09/05 13:41:40;;;;;;;;;;;;;;;;;;5009368;28;19917;-69
2023/09/05 13:44:06;;;;;;;;;;;;;;;;;;5010949;28;19951;-69
2023/09/05 13:46:32;;;;;;;;;;;;;;;;;;5012645;28;20026;-69
2023/09/05 13:48:58;;;;;;;;;;;;;;;;;;5012915;28;19909;-70
2023/09/05 13:51:24;;;;;;;;;;;;;;;;;;5012856;28;20666;-70
2023/09/05 13:53:50;;;;;;;;;;;;;;;;;;5013584;28;19916;-69
2023/09/05 13:56:16;;;;;;;;;;;;;;;;;;5012593;28;20306;-68
2023/09/05 13:58:42;;;;;;;;;;;;;;;;;;5013421;28;20778;-69
2023/09/05 14:01:08;;;;;;;;;;;;;;;;;;5013306;28;19905;-69
2023/09/05 14:03:34;;;;;;;;;;;;;;;;;;5013558;28;20681;-69
2023/09/05 14:06:00;;;;;;;;;;;;;;;;;;5013463;28;19975;-69
2023/09/05 14:08:26;;;;;;;;;;;;;;;;;;5013151;28;19948;-69
2023/09/05 14:10:52;;;;;;;;;;;;;;;;;;5012696;28;20441;-70
2023/09/05 14:13:18;;;;;;;;;;;;;;;;;;5012939;28;20696;-68
2023/09/05 14:15:44;;;;;;;;;;;;;;;;;;5013170;28;19948;-69
2023/09/05 14:18:12;;;;;;;;;;;;;;;;;;5012958;28;20347;-70
2023/09/05 14:20:38;;;;;;;;;;;;;;;;;;5012430;28;19910;-69
2023/09/05 14:23:04;;;;;;;;;;;;;;;;;;5012795;28;19952;-68
2023/09/05 14:25:30;;;;;;;;;;;;;;;;;;5012406;28;19963;-70
2023/09/05 14:27:56;;;;;;;;;;;;;;;;;;5012668;28;20010;-70
2023/09/05 14:30:21;;;;;;;;;;;;;;;;;;5012613;28;19991;-69
2023/09/05 14:32:47;;;;;;;;;;;;;;;;;;5012527;28;19937;-69
2023/09/05 14:35:13;;;;;;;;;;;;;;;;;;5012051;28;19952;-69
2023/09/05 14:37:39;;;;;;;;;;;;;;;;;;5012222;28;20371;-70
2023/09/05 14:40:05;;;;;;;;;;;;;;;;;;5012433;28;20023;-70
2023/09/05 14:42:32;;;;;;;;;;;;;;;;;;5012417;28;20420;-69
2023/09/05 14:44:58;;;;;;;;;;;;;;;;;;5012262;28;19906;-69
2023/09/05 14:47:24;;;;;;;;;;;;;;;;;;5011903;28;19948;-70
2023/09/05 14:49:50;;;;;;;;;;;;;;;;;;5012199;28;19952;-70
2023/09/05 14:52:16;;;;;;;;;;;;;;;;;;5011772;28;19937;-70
2023/09/05 14:54:42;;;;;;;;;;;;;;;;;;5012166;28;20343;-71
2023/09/05 14:57:08;;;;;;;;;;;;;;;;;;5011577;28;20375;-70
2023/09/05 14:59:34;;;;;;;;;;;;;;;;;;5011594;28;19929;-71
2023/09/05 15:02:00;;;;;;;;;;;;;;;;;;5012351;28;20015;-70
2023/09/05 15:04:26;;;;;;;;;;;;;;;;;;5011823;28;20376;-70
2023/09/05 15:06:52;;;;;;;;;;;;;;;;;;5012213;28;19948;-69
2023/09/05 15:09:20;;;;;;;;;;;;;;;;;;5011911;28;20390;-68
2023/09/05 15:11:46;;;;;;;;;;;;;;;;;;5011797;28;20290;-69
2023/09/05 15:14:12;;;;;;;;;;;;;;;;;;5011578;28;19912;-67
2023/09/05 15:16:38;;;;;;;;;;;;;;;;;;5011660;28;19913;-68
2023/09/05 15:19:05;;;;;;;;;;;;;;;;;;5012027;28;20011;-69
2023/09/05 15:21:31;;;;;;;;;;;;;;;;;;5011360;28;19905;-68
2023/09/05 15:24:00;;;;;;;;;;;;;;;;;;5011716;28;20047;-71
2023/09/05 15:26:26;;;;;;;;;;;;;;;;;;5011394;28;20285;-69
2023/09/05 15:28:52;;;;;;;;;;;;;;;;;;5011846;28;19910;-67
2023/09/05 15:31:18;;;;;;;;;;;;;;;;;;5011209;28;19917;-67
2023/09/05 15:33:44;;;;;;;;;;;;;;;;;;5010796;28;20347;-68
2023/09/05 15:36:10;;;;;;;;;;;;;;;;;;5011214;28;19912;-69
2023/09/05 15:38:36;;;;;;;;;;;;;;;;;;5011495;28;19940;-68
2023/09/05 15:41:02;;;;;;;;;;;;;;;;;;5011364;28;20056;-69
2023/09/05 15:43:28;;;;;;;;;;;;;;;;;;5010626;28;19945;-68
2023/09/05 15:45:56;;;;;;;;;;;;;;;;;;5011534;28;19995;-69
2023/09/05 15:48:22;;;;;;;;;;;;;;;;;;5011381;28;19906;-68
2023/09/05 15:50:48;;;;;;;;;;;;;;;;;;5010819;28;19909;-69
2023/09/05 15:53:14;;;;;;;;;;;;;;;;;;5011277;28;19955;-70
2023/09/05 15:55:41;;;;;;;;;;;;;;;;;;5010673;28;19952;-69
2023/09/05 15:58:08;;;;;;;;;;;;;;;;;;5010402;28;20755;-68
2023/09/05 16:00:33;;;;;;;;;;;;;;;;;;5010484;28;19905;-69
2023/09/05 16:02:59;;;;;;;;;;;;;;;;;;5010572;28;20375;-69
2023/09/05 16:05:25;;;;;;;;;;;;;;;;;;4992800;28;19945;-69
2023/09/05 16:07:51;;;;;;;;;;;;;;;;;;5009441;28;19960;-69
2023/09/05 16:10:20;;;;;;;;;;;;;;;;;;5010847;28;20091;-68
2023/09/05 16:12:46;;;;;;;;;;;;;;;;;;5010671;28;20367;-70
2023/09/05 16:15:11;;;;;;;;;;;;;;;;;;5010642;28;19955;-68
2023/09/05 16:17:38;;;;;;;;;;;;;;;;;;5010159;28;19968;-70
2023/09/05 16:20:04;;;;;;;;;;;;;;;;;;5010813;28;19905;-69
2023/09/05 16:22:31;;;;;;;;;;;;;;;;;;5010535;28;20313;-72
2023/09/05 16:24:57;;;;;;;;;;;;;;;;;;5010086;28;19920;-72
2023/09/05 16:27:23;;;;;;;;;;;;;;;;;;5010383;28;19906;-70
2023/09/05 16:29:52;;;;;;;;;;;;;;;;;;5010739;28;19906;-70
2023/09/05 16:32:18;;;;;;;;;;;;;;;;;;5010536;28;20016;-70
2023/09/05 16:34:44;;;;;;;;;;;;;;;;;;5010709;28;19906;-70
2023/09/05 16:37:14;;;;;;;;;;;;;;;;;;5009879;28;19957;-70
2023/09/05 16:39:42;;;;;;;;;;;;;;;;;;5010382;28;19944;-69